createdAt,value
2022-11-25T00:02:08.587Z,6.86
2022-11-25T00:07:08.526Z,6.78
2022-11-25T00:12:08.418Z,6.69
2022-11-25T00:17:08.388Z,6.61
2022-11-25T00:22:08.286Z,6.51
2022-11-25T00:27:08.215Z,6.43
2022-11-25T00:32:08.334Z,6.37
2022-11-25T00:37:08.089Z,6.26
2022-11-25T00:42:08.024Z,6.14
2022-11-25T00:47:07.953Z,6.02
2022-11-25T00:52:07.899Z,5.90
2022-11-25T00:57:07.820Z,5.82
2022-11-25T01:02:07.813Z,5.75
2022-11-25T01:07:07.688Z,5.71
2022-11-25T01:12:07.631Z,5.69
2022-11-25T01:17:07.563Z,5.66
2022-11-25T01:22:07.500Z,5.62
2022-11-25T01:27:07.427Z,5.56
2022-11-25T01:32:07.431Z,5.49
2022-11-25T01:37:07.295Z,5.45
2022-11-25T01:42:07.235Z,5.45
2022-11-25T01:47:07.159Z,5.43
2022-11-25T01:52:07.099Z,5.32
2022-11-25T01:57:07.031Z,5.35
2022-11-25T02:02:07.038Z,5.53
2022-11-25T02:07:06.896Z,5.65
2022-11-25T02:12:06.836Z,5.71
2022-11-25T02:17:06.764Z,5.76
2022-11-25T02:22:06.702Z,5.80
2022-11-25T02:27:06.630Z,5.82
2022-11-25T02:32:06.672Z,5.80
2022-11-25T02:37:06.495Z,5.71
2022-11-25T02:42:06.438Z,5.68
2022-11-25T02:47:06.365Z,5.69
2022-11-25T02:52:06.303Z,5.72
2022-11-25T02:57:06.239Z,5.71
2022-11-25T03:02:06.237Z,5.68
2022-11-25T03:07:06.100Z,5.71
2022-11-25T03:12:06.029Z,5.79
2022-11-25T03:17:05.972Z,5.79
2022-11-25T03:22:05.894Z,5.80
2022-11-25T03:27:05.833Z,5.82
2022-11-25T03:32:09.503Z,5.82
2022-11-25T03:37:05.789Z,5.82
2022-11-25T03:42:05.629Z,5.82
2022-11-25T03:47:05.570Z,5.79
2022-11-25T03:52:05.495Z,5.72
2022-11-25T03:57:05.438Z,5.73
2022-11-25T04:02:05.394Z,5.80
2022-11-25T04:07:05.305Z,5.80
2022-11-25T04:12:05.232Z,5.75
2022-11-25T04:17:05.275Z,5.75
2022-11-25T04:22:05.100Z,5.72
2022-11-25T04:27:05.040Z,5.68
2022-11-25T04:32:04.967Z,5.62
2022-11-25T04:37:04.910Z,5.64
2022-11-25T04:42:04.848Z,5.59
2022-11-25T04:47:04.823Z,5.56
2022-11-25T04:52:04.719Z,5.59
2022-11-25T04:57:04.662Z,5.62
2022-11-25T05:02:04.637Z,5.62
2022-11-25T05:07:04.522Z,5.64
2022-11-25T05:12:04.450Z,5.68
2022-11-25T05:17:04.450Z,5.73
2022-11-25T05:22:04.321Z,5.80
2022-11-25T05:27:04.266Z,5.83
2022-11-25T05:32:04.192Z,5.83
2022-11-25T05:37:04.135Z,5.82
2022-11-25T05:42:04.062Z,5.79
2022-11-25T05:47:04.124Z,5.80
2022-11-25T05:52:03.931Z,5.75
2022-11-25T05:57:03.874Z,5.76
2022-11-25T06:02:03.859Z,5.80
2022-11-25T06:07:03.748Z,5.72
2022-11-25T06:12:03.675Z,5.59
2022-11-25T06:17:03.630Z,5.54
2022-11-25T06:22:03.548Z,5.54
2022-11-25T06:27:03.499Z,5.46
2022-11-25T06:32:03.417Z,5.40
2022-11-25T06:37:03.369Z,5.35
2022-11-25T06:42:03.288Z,5.29
2022-11-25T06:47:03.241Z,5.34
2022-11-25T06:52:03.164Z,5.38
2022-11-25T06:57:03.103Z,5.38
2022-11-25T07:02:03.138Z,5.40
2022-11-25T07:07:02.976Z,5.40
2022-11-25T07:12:02.913Z,5.46
2022-11-25T07:17:06.164Z,5.75
2022-11-25T07:22:02.775Z,6.07
2022-11-25T07:27:02.718Z,6.63
2022-11-25T07:32:07.281Z,7.10
2022-11-25T07:37:02.595Z,7.23
2022-11-25T07:42:02.512Z,7.45
2022-11-25T07:47:02.461Z,7.89
2022-11-25T07:52:02.389Z,7.90
2022-11-25T07:57:02.328Z,7.99
2022-11-25T08:02:02.311Z,7.66
2022-11-25T08:07:02.201Z,8.45
2022-11-25T08:12:02.113Z,10.46
2022-11-25T08:17:02.063Z,12.42
2022-11-25T08:22:01.984Z,13.33
2022-11-25T08:27:01.941Z,13.34
2022-11-25T08:32:01.853Z,13.23
2022-11-25T08:37:01.803Z,12.65
2022-11-25T08:42:01.724Z,14.17
2022-11-25T08:47:01.724Z,14.62
2022-11-25T08:52:01.589Z,15.20
2022-11-25T08:57:01.564Z,15.79
2022-11-25T09:02:01.522Z,14.17
2022-11-25T09:07:01.404Z,14.62
2022-11-25T09:12:01.328Z,14.85
2022-11-25T09:17:01.270Z,12.65
2022-11-25T09:22:01.202Z,11.55
2022-11-25T09:27:01.143Z,11.77
2022-11-25T09:32:01.156Z,12.31
2022-11-25T09:37:01.024Z,12.27
2022-11-25T09:42:00.942Z,12.19
2022-11-25T09:47:00.970Z,12.20
2022-11-25T09:52:00.816Z,12.09
2022-11-25T09:57:00.769Z,12.57
2022-11-25T10:02:00.839Z,12.44
2022-11-25T10:07:00.713Z,12.48
2022-11-25T10:12:00.559Z,12.82
2022-11-25T10:17:00.499Z,12.35
2022-11-25T10:22:00.431Z,11.68
2022-11-25T10:27:00.408Z,11.43
2022-11-25T10:32:00.303Z,11.35
2022-11-25T10:37:00.244Z,10.88
2022-11-25T10:42:00.169Z,10.73
2022-11-25T10:47:15.683Z,10.71
2022-11-25T10:52:01.067Z,10.70
2022-11-25T10:56:59.979Z,10.60
2022-11-25T11:02:00.005Z,10.59
2022-11-25T11:06:59.848Z,10.53
2022-11-25T11:11:59.777Z,10.59
2022-11-25T11:16:59.719Z,10.91
2022-11-25T11:21:59.643Z,11.16
2022-11-25T11:26:59.587Z,11.41
2022-11-25T11:31:59.514Z,11.81
2022-11-25T11:36:59.453Z,11.52
2022-11-25T11:41:59.390Z,11.73
2022-11-25T11:46:59.378Z,11.80
2022-11-25T11:51:59.256Z,11.91
2022-11-25T11:56:59.190Z,12.17
2022-11-25T12:01:59.218Z,12.30
2022-11-25T12:06:59.057Z,12.23
2022-11-25T12:11:58.994Z,12.20
2022-11-25T12:16:58.925Z,12.26
2022-11-25T12:21:58.859Z,12.24
2022-11-25T12:26:58.796Z,12.09
2022-11-25T12:31:58.842Z,12.03
2022-11-25T12:36:58.659Z,11.98
2022-11-25T12:41:58.589Z,11.91
2022-11-25T12:46:58.532Z,11.81
2022-11-25T12:51:58.458Z,11.68
2022-11-25T12:56:58.400Z,11.51
2022-11-25T13:01:58.523Z,11.37
2022-11-25T13:06:58.269Z,11.26
2022-11-25T13:11:58.581Z,11.13
2022-11-25T13:16:58.676Z,11.06
2022-11-25T13:21:58.077Z,10.93
2022-11-25T13:26:58.063Z,10.81
2022-11-25T13:31:59.606Z,10.68
2022-11-25T13:36:57.887Z,10.59
2022-11-25T13:41:57.805Z,10.52
2022-11-25T13:46:57.745Z,10.46
2022-11-25T13:51:57.672Z,10.42
2022-11-25T13:56:57.615Z,10.40
2022-11-25T14:01:57.623Z,10.31
2022-11-25T14:06:57.518Z,10.20
2022-11-25T14:11:57.409Z,10.10
2022-11-25T14:16:57.441Z,10.04
2022-11-25T14:21:57.289Z,9.94
2022-11-25T14:26:57.218Z,9.86
2022-11-25T14:31:57.287Z,9.80
2022-11-25T14:36:57.084Z,9.76
2022-11-25T14:41:57.021Z,9.71
2022-11-25T14:46:56.954Z,9.63
2022-11-25T14:51:56.890Z,9.57
2022-11-25T14:56:56.875Z,9.53
2022-11-25T15:01:56.828Z,9.46
2022-11-25T15:06:56.692Z,9.38
2022-11-25T15:11:56.617Z,9.31
2022-11-25T15:16:56.705Z,9.27
2022-11-25T15:22:21.938Z,9.21
2022-11-25T15:26:57.456Z,9.15
2022-11-25T15:31:56.441Z,9.09
2022-11-25T15:36:56.300Z,9.04
2022-11-25T15:41:56.237Z,9.00
2022-11-25T15:46:56.171Z,8.99
2022-11-25T15:51:56.105Z,8.94
2022-11-25T15:56:56.040Z,8.94
2022-11-25T16:01:56.039Z,8.95
2022-11-25T16:06:55.921Z,8.94
2022-11-25T16:11:55.849Z,8.94
2022-11-25T16:16:55.873Z,8.95
2022-11-25T16:21:55.708Z,8.99
2022-11-25T16:26:55.705Z,9.02
2022-11-25T16:31:55.621Z,9.02
2022-11-25T16:36:55.528Z,9.04
2022-11-25T16:41:55.448Z,9.03
2022-11-25T16:46:55.399Z,8.99
2022-11-25T16:51:55.317Z,8.92
2022-11-25T16:56:55.262Z,8.89
2022-11-25T17:01:55.289Z,8.84
2022-11-25T17:07:30.399Z,8.79
2022-11-25T17:11:56.085Z,8.76
2022-11-25T17:16:55.109Z,8.73
2022-11-25T17:21:54.928Z,8.69
2022-11-25T17:26:54.870Z,8.71
2022-11-25T17:31:58.418Z,8.70
2022-11-25T17:36:54.753Z,8.70
2022-11-25T17:41:54.668Z,8.73
2022-11-25T17:46:54.620Z,8.73
2022-11-25T17:51:54.540Z,8.74
2022-11-25T17:56:54.492Z,8.76
2022-11-25T18:01:54.467Z,8.73
2022-11-25T18:06:54.396Z,8.70
2022-11-25T18:11:54.281Z,8.69
2022-11-25T18:16:54.290Z,8.67
2022-11-25T18:21:54.147Z,8.66
2022-11-25T18:26:54.091Z,8.64
2022-11-25T18:31:54.021Z,8.64
2022-11-25T18:36:53.960Z,8.63
2022-11-25T18:41:53.922Z,8.56
2022-11-25T18:46:53.832Z,8.51
2022-11-25T18:51:53.760Z,8.45
2022-11-25T18:56:53.698Z,8.42
2022-11-25T19:01:53.677Z,8.38
2022-11-25T19:06:53.566Z,8.37
2022-11-25T19:11:53.505Z,8.38
2022-11-25T19:16:53.523Z,8.41
2022-11-25T19:21:53.373Z,8.41
2022-11-25T19:26:53.306Z,8.41
2022-11-25T19:31:53.269Z,8.42
2022-11-25T19:36:53.185Z,8.44
2022-11-25T19:41:53.104Z,8.44
2022-11-25T19:47:14.307Z,8.42
2022-11-25T19:51:54.002Z,8.37
2022-11-25T19:56:52.926Z,8.35
2022-11-25T20:01:52.898Z,8.37
2022-11-25T20:06:52.794Z,8.37
2022-11-25T20:11:52.710Z,8.37
2022-11-25T20:16:52.692Z,8.35
2022-11-25T20:21:52.581Z,8.32
2022-11-25T20:26:52.523Z,8.27
2022-11-25T20:31:52.480Z,8.26
2022-11-25T20:36:52.394Z,8.25
2022-11-25T20:41:52.322Z,8.23
2022-11-25T20:46:52.263Z,8.19
2022-11-25T20:51:52.189Z,8.14
2022-11-25T20:56:52.146Z,8.09
2022-11-25T21:01:52.128Z,7.99
2022-11-25T21:06:52.008Z,7.92
2022-11-25T21:11:51.929Z,7.82
2022-11-25T21:16:51.938Z,7.72
2022-11-25T21:21:51.795Z,7.58
2022-11-25T21:26:51.746Z,7.43
2022-11-25T21:31:51.729Z,7.35
2022-11-25T21:36:51.607Z,7.25
2022-11-25T21:41:51.544Z,7.21
2022-11-25T21:46:51.476Z,7.17
2022-11-25T21:51:51.412Z,7.10
2022-11-25T21:56:51.344Z,7.05
2022-11-25T22:01:51.285Z,7.03
2022-11-25T22:06:51.213Z,6.97
2022-11-25T22:11:51.150Z,6.96
2022-11-25T22:16:51.147Z,6.91
2022-11-25T22:21:51.011Z,6.87
2022-11-25T22:26:56.014Z,6.84
2022-11-25T22:31:50.962Z,6.86
2022-11-25T22:36:50.821Z,6.87
2022-11-25T22:41:50.747Z,6.88
2022-11-25T22:46:50.695Z,6.95
2022-11-25T22:51:50.616Z,7.05
2022-11-25T22:56:50.559Z,7.14
2022-11-25T23:01:50.533Z,7.21
2022-11-25T23:06:50.428Z,7.23
2022-11-25T23:11:50.365Z,7.28
2022-11-25T23:16:50.388Z,7.29
2022-11-25T23:21:50.235Z,7.31
2022-11-25T23:26:50.167Z,7.32
2022-11-25T23:31:50.179Z,7.33
2022-11-25T23:36:50.035Z,7.33
2022-11-25T23:41:49.964Z,7.36
2022-11-25T23:46:49.906Z,7.40
2022-11-25T23:51:49.834Z,7.47
2022-11-25T23:56:49.777Z,7.51
